Time;durP1;ratioP1;P1;durP2;ratioP2;P2;SDS_P1;SDS_P2;PMS_P1;PMS_P2;Temp;Humidity;BMP_temperature;BMP_pressure;BME280_temperature;BME280_humidity;BME280_pressure;Samples;Min_cycle;Max_cycle;Signal;HPM_P1;HPM_P2
2023/01/20 00:01:32;;;;;;;;;;;;;;;3.41;100.00;100932.00;5080978;28;1959;-80
2023/01/20 00:03:59;;;;;;;;;;;;;;;3.36;100.00;100935.84;5081521;28;826;-80
2023/01/20 00:06:29;;;;;;;;;;;;;;;3.34;100.00;100941.22;5079795;28;912;-80
2023/01/20 00:08:57;;;;;;;;;;;;;;;3.34;100.00;100935.94;5081496;28;786;-80
2023/01/20 00:11:23;;;;;;;;;;;;;;;3.21;100.00;100942.72;5081274;28;1256;-81
2023/01/20 00:13:54;;;;;;;;;;;;;;;3.18;100.00;100942.91;5081715;28;822;-81
2023/01/20 00:16:21;;;;;;;;;;;;;;;3.12;100.00;100938.72;5081596;28;886;-81
2023/01/20 00:18:47;;;;;;;;;;;;;;;3.12;100.00;100940.53;5082092;28;787;-80
2023/01/20 00:21:15;;;;;;;;;;;;;;;3.12;100.00;100949.34;5080735;28;1969;-81
2023/01/20 00:23:41;;;;;;;;;;;;;;;3.17;100.00;100951.78;5081647;28;889;-80
2023/01/20 00:26:10;;;;;;;;;;;;;;;3.17;100.00;100951.78;5081769;28;806;-81
2023/01/20 00:28:36;;;;;;;;;;;;;;;3.22;100.00;100949.75;5081387;28;826;-80
2023/01/20 00:31:20;;;;;;;;;;;;;;;3.22;100.00;100957.69;5080940;28;1271;-80
2023/01/20 00:33:47;;;;;;;;;;;;;;;3.11;100.00;100963.53;5081924;28;702;-80
2023/01/20 00:36:15;;;;;;;;;;;;;;;2.99;100.00;100971.19;5081991;28;802;-81
2023/01/20 00:38:41;;;;;;;;;;;;;;;2.97;100.00;100973.06;5081523;28;1040;-81
2023/01/20 00:41:08;;;;;;;;;;;;;;;3.00;100.00;100978.22;5080858;28;1893;-81
2023/01/20 00:43:35;;;;;;;;;;;;;;;3.01;100.00;100983.44;5079128;28;980;-80
2023/01/20 00:46:02;;;;;;;;;;;;;;;3.05;100.00;100994.78;5078953;28;617;-80
2023/01/20 00:48:27;;;;;;;;;;;;;;;3.00;100.00;100991.47;5078642;28;892;-80
2023/01/20 00:50:53;;;;;;;;;;;;;;;3.00;100.00;100991.47;5078554;28;1288;-80
2023/01/20 00:53:20;;;;;;;;;;;;;;;2.95;100.00;100989.03;5079293;28;783;-80
2023/01/20 00:55:45;;;;;;;;;;;;;;;2.87;100.00;100999.13;5078717;28;645;-80
2023/01/20 00:58:11;;;;;;;;;;;;;;;2.83;100.00;100993.09;5078824;28;814;-80
2023/01/20 01:00:38;;;;;;;;;;;;;;;2.80;100.00;101008.28;5078086;28;1893;-80
2023/01/20 01:03:06;;;;;;;;;;;;;;;2.84;100.00;101007.19;5078845;28;865;-80
2023/01/20 01:05:32;;;;;;;;;;;;;;;2.77;100.00;101006.63;5078843;28;806;-80
2023/01/20 01:07:58;;;;;;;;;;;;;;;2.67;100.00;101010.63;5079046;28;826;-80
2023/01/20 01:10:24;;;;;;;;;;;;;;;2.58;100.00;101014.56;5078056;28;1196;-80
2023/01/20 01:12:54;;;;;;;;;;;;;;;2.43;100.00;101022.31;5078500;28;960;-80
2023/01/20 01:15:20;;;;;;;;;;;;;;;2.48;100.00;101025.63;5078710;28;818;-80
2023/01/20 01:17:46;;;;;;;;;;;;;;;2.52;100.00;101032.50;5078368;28;891;-81
2023/01/20 01:20:13;;;;;;;;;;;;;;;2.47;100.00;101032.72;5078076;28;1674;-80
2023/01/20 01:22:39;;;;;;;;;;;;;;;2.49;100.00;101040.56;5078570;28;1867;-80
2023/01/20 01:25:05;;;;;;;;;;;;;;;2.53;100.00;101040.38;5079337;28;802;-80
2023/01/20 01:27:31;;;;;;;;;;;;;;;2.52;100.00;101038.66;5078923;28;674;-80
2023/01/20 01:29:57;;;;;;;;;;;;;;;2.47;100.00;101048.59;5079125;28;825;-80
2023/01/20 01:32:23;;;;;;;;;;;;;;;2.50;100.00;101045.81;5078477;28;1287;-80
2023/01/20 01:34:49;;;;;;;;;;;;;;;2.48;100.00;101050.31;5077876;28;929;-80
2023/01/20 01:37:15;;;;;;;;;;;;;;;2.41;100.00;101048.00;5078985;28;798;-81
2023/01/20 01:39:41;;;;;;;;;;;;;;;2.41;100.00;101054.16;5079178;28;818;-80
2023/01/20 01:42:14;;;;;;;;;;;;;;;2.30;100.00;101056.41;5078837;28;1894;-80
2023/01/20 01:45:16;;;;;;;;;;;;;;;2.36;100.00;101057.91;5079659;28;1079;-80
2023/01/20 01:47:47;;;;;;;;;;;;;;;2.41;100.00;101072.69;5079264;28;530;-80
2023/01/20 01:50:20;;;;;;;;;;;;;;;2.48;100.00;101060.91;5078639;28;1256;-81
2023/01/20 01:52:49;;;;;;;;;;;;;;;2.42;100.00;101053.22;5080224;28;684;-80
2023/01/20 01:55:17;;;;;;;;;;;;;;;2.40;100.00;101059.50;5079533;28;818;-80
2023/01/20 01:57:44;;;;;;;;;;;;;;;2.50;100.00;101058.19;5082479;28;838;-81
2023/01/20 02:00:11;;;;;;;;;;;;;;;2.57;100.00;101067.59;5082558;28;1209;-81
2023/01/20 02:02:37;;;;;;;;;;;;;;;2.50;100.00;101069.63;5083830;28;1952;-80
2023/01/20 02:05:03;;;;;;;;;;;;;;;2.59;100.00;101065.72;5083340;28;790;-80
2023/01/20 02:07:32;;;;;;;;;;;;;;;2.63;100.00;101069.94;5083232;28;858;-80
2023/01/20 02:09:59;;;;;;;;;;;;;;;2.74;100.00;101075.63;5083030;28;865;-81
2023/01/20 02:12:26;;;;;;;;;;;;;;;2.84;100.00;101078.72;5082625;28;751;-80
2023/01/20 02:14:54;;;;;;;;;;;;;;;2.84;100.00;101079.59;5083387;28;798;-80
2023/01/20 02:17:31;;;;;;;;;;;;;;;2.71;100.00;101082.84;5083808;28;814;-81
2023/01/20 02:20:25;;;;;;;;;;;;;;;2.76;100.00;101096.78;5082807;28;541;-81
2023/01/20 02:23:16;;;;;;;;;;;;;;;2.76;100.00;101094.97;5084280;28;1953;-80
2023/01/20 02:26:09;;;;;;;;;;;;;;;2.86;100.00;101098.94;5083530;28;903;-80
2023/01/20 02:29:20;;;;;;;;;;;;;;;2.93;100.00;101102.16;5084229;28;527;-80
2023/01/20 02:32:13;;;;;;;;;;;;;;;2.92;100.00;101096.94;5083230;28;1339;-81
2023/01/20 02:34:52;;;;;;;;;;;;;;;2.74;100.00;101106.56;5083432;28;678;-81
2023/01/20 02:37:26;;;;;;;;;;;;;;;2.73;100.00;101113.63;5083454;28;716;-81
2023/01/20 02:40:18;;;;;;;;;;;;;;;2.88;100.00;101120.94;5083415;28;546;-81
2023/01/20 02:42:59;;;;;;;;;;;;;;;2.92;100.00;101120.78;5083601;28;1898;-80
2023/01/20 02:45:49;;;;;;;;;;;;;;;2.92;100.00;101129.59;5083416;28;890;-81
2023/01/20 02:48:22;;;;;;;;;;;;;;;2.97;100.00;101126.75;5083349;28;558;-81
2023/01/20 02:50:53;;;;;;;;;;;;;;;2.91;100.00;101127.88;5084286;28;1382;-81
2023/01/20 02:53:23;;;;;;;;;;;;;;;2.92;100.00;101132.25;5084666;28;516;-81
2023/01/20 02:55:53;;;;;;;;;;;;;;;2.67;100.00;101124.53;5085364;28;814;-80
2023/01/20 02:58:26;;;;;;;;;;;;;;;2.79;100.00;101125.78;5081076;28;818;-81
2023/01/20 03:01:07;;;;;;;;;;;;;;;2.70;100.00;101131.47;5080625;28;1955;-80
2023/01/20 03:03:37;;;;;;;;;;;;;;;2.70;100.00;101128.81;5081832;28;571;-80
2023/01/20 03:06:10;;;;;;;;;;;;;;;2.78;100.00;101130.22;5082108;28;876;-80
2023/01/20 03:08:39;;;;;;;;;;;;;;;2.86;100.00;101137.81;5080739;28;576;-81
2023/01/20 03:11:07;;;;;;;;;;;;;;;2.86;100.00;101133.38;5081174;28;1180;-80
2023/01/20 03:13:51;;;;;;;;;;;;;;;2.93;100.00;101136.59;5081533;28;774;-81
2023/01/20 03:16:21;;;;;;;;;;;;;;;3.00;100.00;101142.50;5081658;28;551;-80
2023/01/20 03:18:48;;;;;;;;;;;;;;;3.03;100.00;101137.91;5081276;28;822;-80
2023/01/20 03:21:14;;;;;;;;;;;;;;;3.00;100.00;101131.91;5080681;28;1894;-80
2023/01/20 03:23:45;;;;;;;;;;;;;;;3.05;100.00;101133.44;5081549;28;823;-81
2023/01/20 03:26:14;;;;;;;;;;;;;;;3.06;100.00;101137.81;5081728;28;547;-80
2023/01/20 03:28:43;;;;;;;;;;;;;;;2.95;100.00;101140.06;5079640;28;1001;-81
2023/01/20 03:31:19;;;;;;;;;;;;;;;2.98;100.00;101147.88;5081775;28;1217;-80
2023/01/20 03:33:47;;;;;;;;;;;;;;;3.06;100.00;101153.69;5081861;28;558;-80
2023/01/20 03:36:15;;;;;;;;;;;;;;;3.07;100.00;101159.88;5079185;28;922;-80
2023/01/20 03:38:42;;;;;;;;;;;;;;;3.07;100.00;101162.50;5081178;28;818;-80
2023/01/20 03:41:45;;;;;;;;;;;;;;;3.09;100.00;101164.16;5080998;28;1902;-80
2023/01/20 03:44:26;;;;;;;;;;;;;;;3.07;100.00;101166.03;5081324;28;845;-80
2023/01/20 03:47:19;;;;;;;;;;;;;;;3.09;100.00;101169.47;5080927;28;550;-80
2023/01/20 03:50:07;;;;;;;;;;;;;;;3.00;100.00;101169.88;5081737;28;624;-80
2023/01/20 03:52:53;;;;;;;;;;;;;;;2.88;100.00;101165.09;5081499;28;565;-81
2023/01/20 03:55:25;;;;;;;;;;;;;;;2.80;100.00;101173.38;5079489;28;766;-81
2023/01/20 03:58:02;;;;;;;;;;;;;;;2.74;100.00;101178.06;5081580;28;527;-81
2023/01/20 04:00:31;;;;;;;;;;;;;;;2.76;100.00;101168.28;5080445;28;1220;-80
2023/01/20 04:03:02;;;;;;;;;;;;;;;2.91;100.00;101164.97;5081080;28;1893;-81
2023/01/20 04:05:28;;;;;;;;;;;;;;;2.95;100.00;101171.88;5082070;28;541;-81
2023/01/20 04:07:58;;;;;;;;;;;;;;;3.01;100.00;101174.22;5080746;28;923;-80
2023/01/20 04:10:29;;;;;;;;;;;;;;;2.94;100.00;101191.31;5081262;28;1184;-81
2023/01/20 04:12:55;;;;;;;;;;;;;;;3.02;100.00;101175.09;5081321;28;537;-81
2023/01/20 04:15:24;;;;;;;;;;;;;;;3.06;100.00;101174.91;5081469;28;743;-80
2023/01/20 04:17:50;;;;;;;;;;;;;;;3.08;100.00;101175.69;5081314;28;822;-80
2023/01/20 04:20:16;;;;;;;;;;;;;;;2.99;100.00;101180.53;5079995;28;1216;-81
2023/01/20 04:22:51;;;;;;;;;;;;;;;3.02;100.00;101178.59;5081699;28;1901;-80
2023/01/20 04:25:25;;;;;;;;;;;;;;;3.03;100.00;101175.03;5081129;28;519;-81
2023/01/20 04:27:51;;;;;;;;;;;;;;;3.08;100.00;101185.44;5081536;28;608;-81
2023/01/20 04:30:17;;;;;;;;;;;;;;;3.13;100.00;101188.72;5081312;28;1180;-81
2023/01/20 04:32:43;;;;;;;;;;;;;;;3.13;100.00;101196.69;5081459;28;794;-81
2023/01/20 04:35:16;;;;;;;;;;;;;;;3.15;100.00;101195.72;5081564;28;837;-80
2023/01/20 04:37:42;;;;;;;;;;;;;;;3.16;100.00;101197.44;5081768;28;864;-81
2023/01/20 04:40:09;;;;;;;;;;;;;;;3.19;100.00;101200.88;5081166;28;1193;-81
2023/01/20 04:42:35;;;;;;;;;;;;;;;3.21;100.00;101204.31;5081951;28;1956;-81
2023/01/20 04:45:01;;;;;;;;;;;;;;;3.16;100.00;101194.78;5081359;28;829;-80
2023/01/20 04:47:31;;;;;;;;;;;;;;;3.10;100.00;101202.13;5081663;28;758;-81
2023/01/20 04:49:56;;;;;;;;;;;;;;;3.09;100.00;101201.25;5081343;28;787;-82
2023/01/20 04:52:22;;;;;;;;;;;;;;;3.15;100.00;101200.16;5081449;28;1287;-81
2023/01/20 04:54:48;;;;;;;;;;;;;;;3.17;100.00;101199.16;5081498;28;818;-81
2023/01/20 04:57:14;;;;;;;;;;;;;;;3.17;100.00;101199.16;5080516;28;885;-81
2023/01/20 04:59:41;;;;;;;;;;;;;;;3.16;100.00;101204.50;5079801;28;956;-81
2023/01/20 05:02:07;;;;;;;;;;;;;;;3.19;100.00;101206.16;5081197;28;1898;-81
2023/01/20 05:04:33;;;;;;;;;;;;;;;3.24;100.00;101212.09;5081650;28;975;-80
2023/01/20 05:06:59;;;;;;;;;;;;;;;3.19;100.00;101214.13;5082299;28;908;-81
2023/01/20 05:09:25;;;;;;;;;;;;;;;3.20;100.00;101211.41;5082457;28;930;-81
2023/01/20 05:11:51;;;;;;;;;;;;;;;3.25;100.00;101208.56;5082404;28;1201;-80
2023/01/20 05:14:17;;;;;;;;;;;;;;;3.26;100.00;101218.22;5079470;28;949;-80
2023/01/20 05:16:43;;;;;;;;;;;;;;;3.25;100.00;101212.06;5078983;28;892;-81
2023/01/20 05:19:12;;;;;;;;;;;;;;;3.25;100.00;101209.41;5079857;28;969;-81
2023/01/20 05:21:38;;;;;;;;;;;;;;;3.12;100.00;101218.81;5078723;28;1894;-80
2023/01/20 05:24:04;;;;;;;;;;;;;;;3.18;100.00;101223.84;5079498;28;868;-80
2023/01/20 05:26:31;;;;;;;;;;;;;;;3.27;100.00;101226.09;5078977;28;874;-81
2023/01/20 05:28:57;;;;;;;;;;;;;;;3.21;100.00;101234.31;5079959;28;881;-80
2023/01/20 05:31:23;;;;;;;;;;;;;;;3.25;100.00;101233.28;5076444;28;1271;-80
2023/01/20 05:33:49;;;;;;;;;;;;;;;3.22;100.00;101237.81;5078653;28;844;-80
2023/01/20 05:36:15;;;;;;;;;;;;;;;3.27;100.00;101244.66;5077304;28;876;-81
2023/01/20 05:38:41;;;;;;;;;;;;;;;3.34;100.00;101248.78;5079407;28;814;-80
2023/01/20 05:41:08;;;;;;;;;;;;;;;3.36;100.00;101252.22;5078722;28;1192;-80
2023/01/20 05:43:35;;;;;;;;;;;;;;;3.37;100.00;101255.72;5077182;28;1898;-80
2023/01/20 05:46:01;;;;;;;;;;;;;;;3.24;100.00;101263.34;5079034;28;559;-80
2023/01/20 05:48:27;;;;;;;;;;;;;;;3.18;100.00;101268.91;5079987;28;886;-80
2023/01/20 05:50:53;;;;;;;;;;;;;;;3.25;100.00;101267.75;5079271;28;1201;-80
2023/01/20 05:53:19;;;;;;;;;;;;;;;3.24;100.00;101271.28;5079545;28;830;-80
2023/01/20 05:55:45;;;;;;;;;;;;;;;3.28;100.00;101274.69;5078989;28;732;-81
2023/01/20 05:58:13;;;;;;;;;;;;;;;3.33;100.00;101272.69;5077423;28;838;-80
2023/01/20 06:00:39;;;;;;;;;;;;;;;3.38;100.00;101282.19;5079064;28;1276;-81
2023/01/20 06:03:05;;;;;;;;;;;;;;;3.43;100.00;101282.81;5079447;28;1964;-80
2023/01/20 06:05:31;;;;;;;;;;;;;;;3.51;100.00;101281.63;5079832;28;820;-80
2023/01/20 06:07:57;;;;;;;;;;;;;;;3.54;100.00;101287.69;5079177;28;926;-81
2023/01/20 06:10:26;;;;;;;;;;;;;;;3.58;100.00;101293.69;5079121;28;1248;-81
2023/01/20 06:12:54;;;;;;;;;;;;;;;3.41;100.00;101297.09;5079785;28;831;-80
2023/01/20 06:15:22;;;;;;;;;;;;;;;3.41;100.00;101300.59;5079024;28;806;-80
2023/01/20 06:17:49;;;;;;;;;;;;;;;3.67;100.00;101307.41;5076298;28;892;-81
2023/01/20 06:20:15;;;;;;;;;;;;;;;4.00;100.00;101307.69;5075198;28;1298;-82
2023/01/20 06:22:41;;;;;;;;;;;;;;;4.30;100.00;101307.19;5075942;28;1963;-82
2023/01/20 06:25:08;;;;;;;;;;;;;;;4.51;100.00;101308.81;5075545;28;941;-82
2023/01/20 06:27:35;;;;;;;;;;;;;;;4.63;100.00;101311.84;5076391;28;819;-82
2023/01/20 06:30:03;;;;;;;;;;;;;;;4.77;100.00;101310.22;5075318;28;1168;-82
2023/01/20 06:32:29;;;;;;;;;;;;;;;4.90;100.00;101315.78;5075441;28;825;-82
2023/01/20 06:34:55;;;;;;;;;;;;;;;4.99;100.00;101317.13;5075813;28;830;-82
2023/01/20 06:37:21;;;;;;;;;;;;;;;5.05;100.00;101323.03;5075780;28;924;-82
2023/01/20 06:39:47;;;;;;;;;;;;;;;4.98;100.00;101329.56;5075657;28;885;-82
2023/01/20 06:42:13;;;;;;;;;;;;;;;5.09;100.00;101327.22;5073979;28;1960;-82
2023/01/20 06:44:39;;;;;;;;;;;;;;;5.14;100.00;101327.03;5079032;28;958;-81
2023/01/20 06:47:05;;;;;;;;;;;;;;;5.02;100.00;101332.97;5077473;28;861;-81
2023/01/20 06:49:32;;;;;;;;;;;;;;;5.00;100.00;101330.34;5079121;28;807;-82
2023/01/20 06:51:59;;;;;;;;;;;;;;;4.86;100.00;101332.84;5078418;28;1285;-84
2023/01/20 06:54:26;;;;;;;;;;;;;;;4.63;100.00;101343.72;5079186;28;829;-81
2023/01/20 06:56:52;;;;;;;;;;;;;;;4.56;100.00;101349.31;5079007;28;816;-82
2023/01/20 06:59:17;;;;;;;;;;;;;;;4.69;100.00;101359.34;5078827;28;910;-83
2023/01/20 07:01:43;;;;;;;;;;;;;;;4.80;100.00;101362.34;5078071;28;1185;-81
2023/01/20 07:04:13;;;;;;;;;;;;;;;4.87;100.00;101358.47;5078309;28;1949;-81
2023/01/20 07:06:41;;;;;;;;;;;;;;;4.82;100.00;101358.72;5078226;28;735;-81
2023/01/20 07:09:10;;;;;;;;;;;;;;;4.82;100.00;101363.16;5078706;28;803;-81
2023/01/20 07:11:36;;;;;;;;;;;;;;;4.81;100.00;101364.94;5077389;28;1260;-82
2023/01/20 07:14:03;;;;;;;;;;;;;;;4.77;100.00;101371.34;5078197;28;898;-82
2023/01/20 07:16:29;;;;;;;;;;;;;;;4.82;100.00;101379.13;5077969;28;954;-82
2023/01/20 07:18:56;;;;;;;;;;;;;;;4.80;100.00;101376.50;5077504;28;739;-81
2023/01/20 07:21:22;;;;;;;;;;;;;;;4.82;100.00;101381.78;5075857;28;1268;-82
2023/01/20 07:23:48;;;;;;;;;;;;;;;4.60;100.00;101382.78;5077328;28;1898;-82
2023/01/20 07:26:20;;;;;;;;;;;;;;;4.49;100.00;101382.41;5081367;28;898;-81
2023/01/20 07:28:46;;;;;;;;;;;;;;;4.41;100.00;101387.22;5079967;28;968;-81
2023/01/20 07:31:17;;;;;;;;;;;;;;;4.44;100.00;101388.91;5078217;28;1287;-81
2023/01/20 07:33:43;;;;;;;;;;;;;;;4.44;100.00;101397.72;5079371;28;654;-81
2023/01/20 07:36:10;;;;;;;;;;;;;;;4.53;100.00;101413.25;5078839;28;816;-81
2023/01/20 07:38:37;;;;;;;;;;;;;;;4.41;100.00;101403.16;5078608;28;791;-82
2023/01/20 07:41:06;;;;;;;;;;;;;;;4.35;100.00;101414.06;5077847;28;1176;-82
2023/01/20 07:43:32;;;;;;;;;;;;;;;4.35;100.00;101407.91;5076685;28;1964;-82
2023/01/20 07:46:00;;;;;;;;;;;;;;;4.47;100.00;101417.97;5078205;28;689;-81
2023/01/20 07:48:30;;;;;;;;;;;;;;;4.25;100.00;101420.75;5080016;28;854;-81
2023/01/20 07:51:06;;;;;;;;;;;;;;;4.07;100.00;101416.25;5079137;28;1189;-81
2023/01/20 07:53:38;;;;;;;;;;;;;;;4.13;100.00;101411.53;5080059;28;672;-81
2023/01/20 07:56:07;;;;;;;;;;;;;;;4.27;100.00;101421.53;5079601;28;807;-81
2023/01/20 07:58:34;;;;;;;;;;;;;;;4.31;100.00;101417.78;5079678;28;838;-81
2023/01/20 08:01:12;;;;;;;;;;;;;;;4.50;100.00;101426.63;5078490;28;1288;-84
2023/01/20 08:03:39;;;;;;;;;;;;;;;4.46;100.00;101434.84;5078603;28;1878;-84
2023/01/20 08:06:08;;;;;;;;;;;;;;;4.40;100.00;101433.31;5080798;28;892;-85
2023/01/20 08:08:34;;;;;;;;;;;;;;;4.33;100.00;101437.19;5080188;28;884;-85
2023/01/20 08:11:01;;;;;;;;;;;;;;;4.46;100.00;101434.84;5078512;28;1205;-83
2023/01/20 08:13:29;;;;;;;;;;;;;;;4.30;100.00;101443.47;5078422;28;876;-85
2023/01/20 08:15:59;;;;;;;;;;;;;;;4.32;100.00;101446.91;5079102;28;885;-84
2023/01/20 08:18:25;;;;;;;;;;;;;;;4.15;100.00;101446.84;5079304;28;790;-84
2023/01/20 08:20:51;;;;;;;;;;;;;;;4.00;100.00;101451.00;5078518;28;1209;-84
2023/01/20 08:23:17;;;;;;;;;;;;;;;4.24;100.00;101454.41;5078726;28;1948;-84
2023/01/20 08:25:43;;;;;;;;;;;;;;;4.40;100.00;101459.88;5077463;28;824;-84
2023/01/20 08:28:11;;;;;;;;;;;;;;;4.54;100.00;101468.09;5079395;28;873;-84
2023/01/20 08:30:38;;;;;;;;;;;;;;;4.56;100.00;101468.88;5079215;28;1209;-83
2023/01/20 08:33:03;;;;;;;;;;;;;;;4.53;100.00;101469.03;5079504;28;1233;-83
2023/01/20 08:35:29;;;;;;;;;;;;;;;4.64;100.00;101476.50;5079648;28;739;-85
2023/01/20 08:37:56;;;;;;;;;;;;;;;4.55;100.00;101471.63;5077729;28;824;-86
2023/01/20 08:40:22;;;;;;;;;;;;;;;4.66;100.00;101482.59;5078818;28;1200;-84
2023/01/20 08:42:48;;;;;;;;;;;;;;;4.65;100.00;101480.88;5079600;28;1899;-85
2023/01/20 08:45:13;;;;;;;;;;;;;;;4.58;100.00;101490.91;5076463;28;911;-84
2023/01/20 08:47:43;;;;;;;;;;;;;;;4.61;100.00;101496.09;5078592;28;751;-83
2023/01/20 08:50:11;;;;;;;;;;;;;;;4.61;100.00;101493.44;5078577;28;1283;-83
2023/01/20 08:52:38;;;;;;;;;;;;;;;4.67;100.00;101499.41;5078498;28;1044;-83
2023/01/20 08:55:04;;;;;;;;;;;;;;;4.69;100.00;101503.72;5078477;28;906;-83
2023/01/20 08:57:30;;;;;;;;;;;;;;;4.50;100.00;101503.69;5079067;28;754;-83
2023/01/20 08:59:56;;;;;;;;;;;;;;;4.24;100.00;101507.50;5078637;28;834;-84
2023/01/20 09:02:23;;;;;;;;;;;;;;;4.41;100.00;101505.88;5076306;28;1244;-83
2023/01/20 09:04:50;;;;;;;;;;;;;;;4.57;100.00;101514.91;5078230;28;1953;-83
2023/01/20 09:07:18;;;;;;;;;;;;;;;4.68;100.00;101522.41;5078232;28;837;-83
2023/01/20 09:09:45;;;;;;;;;;;;;;;4.86;100.00;101522.41;5077924;28;909;-83
2023/01/20 09:12:11;;;;;;;;;;;;;;;4.99;100.00;101521.84;5078046;28;1217;-83
2023/01/20 09:14:38;;;;;;;;;;;;;;;4.96;100.00;101528.19;5079068;28;811;-83
2023/01/20 09:17:04;;;;;;;;;;;;;;;4.78;100.00;101535.19;5077031;28;873;-83
2023/01/20 09:19:30;;;;;;;;;;;;;;;4.66;100.00;101532.22;5078042;28;882;-85
2023/01/20 09:21:56;;;;;;;;;;;;;;;4.58;100.00;101536.09;5077077;28;1335;-85
2023/01/20 09:24:22;;;;;;;;;;;;;;;4.52;100.00;101541.69;5077311;28;1957;-85
2023/01/20 09:26:49;;;;;;;;;;;;;;;4.56;100.00;101545.94;5077753;28;822;-85
2023/01/20 09:29:19;;;;;;;;;;;;;;;4.63;100.00;101551.84;5075110;28;850;-84
2023/01/20 09:31:56;;;;;;;;;;;;;;;4.44;100.00;101562.41;5077434;28;1287;-85
2023/01/20 09:34:24;;;;;;;;;;;;;;;4.38;100.00;101564.47;5075066;28;942;-86
2023/01/20 09:36:55;;;;;;;;;;;;;;;4.57;100.00;101573.34;5076326;28;799;-85
2023/01/20 09:45:24;;;;;;;;;;;;;;;4.30;100.00;101586.88;5080632;28;918;-85
2023/01/20 09:48:02;;;;;;;;;;;;;;;4.59;100.00;101590.09;5079220;28;924;-85
2023/01/20 09:53:55;;;;;;;;;;;;;;;4.20;100.00;101603.28;5080783;28;716;-86
2023/01/20 09:56:26;;;;;;;;;;;;;;;4.19;100.00;101601.56;5077697;28;904;-85
2023/01/20 09:58:56;;;;;;;;;;;;;;;4.67;100.00;101603.91;5080421;28;809;-85
2023/01/20 10:01:33;;;;;;;;;;;;;;;5.09;100.00;101608.22;5078857;28;1232;-86
2023/01/20 10:04:11;;;;;;;;;;;;;;;5.23;100.00;101610.28;5079191;28;1905;-86
2023/01/20 10:06:44;;;;;;;;;;;;;;;5.48;100.00;101609.06;5078655;28;919;-85
2023/01/20 10:09:20;;;;;;;;;;;;;;;5.63;100.00;101615.47;5079158;28;560;-84
2023/01/20 10:11:48;;;;;;;;;;;;;;;5.38;100.00;101606.91;5078098;28;1193;-83
2023/01/20 10:14:24;;;;;;;;;;;;;;;5.26;100.00;101618.97;5080942;28;807;-84
2023/01/20 10:17:03;;;;;;;;;;;;;;;5.00;100.00;101617.50;5079111;28;873;-82
2023/01/20 10:19:48;;;;;;;;;;;;;;;4.91;100.00;101623.22;5083806;28;951;-84
2023/01/20 10:22:14;;;;;;;;;;;;;;;4.84;100.00;101621.78;5082537;28;1280;-85
2023/01/20 10:24:57;;;;;;;;;;;;;;;4.28;100.00;101627.72;5082213;28;1886;-85
2023/01/20 10:27:28;;;;;;;;;;;;;;;4.08;100.00;101625.03;5081726;28;968;-85
2023/01/20 10:30:12;;;;;;;;;;;;;;;4.24;100.00;101626.16;5081839;28;964;-85
2023/01/20 10:33:03;;;;;;;;;;;;;;;4.11;100.00;101638.19;5082107;28;679;-85
2023/01/20 10:35:35;;;;;;;;;;;;;;;4.13;100.00;101629.25;5081280;28;1158;-85
2023/01/20 10:38:06;;;;;;;;;;;;;;;4.27;100.00;101629.53;5080329;28;860;-85
2023/01/20 10:40:42;;;;;;;;;;;;;;;4.35;100.00;101636.31;5081688;28;1271;-84
2023/01/20 10:43:14;;;;;;;;;;;;;;;4.57;100.00;101635.31;5080432;28;1890;-84
2023/01/20 10:46:01;;;;;;;;;;;;;;;4.76;100.00;101640.72;5083281;28;920;-84
2023/01/20 10:48:34;;;;;;;;;;;;;;;5.00;100.00;101636.09;5083235;28;830;-86
2023/01/20 10:51:13;;;;;;;;;;;;;;;5.29;100.00;101639.25;5082134;28;1256;-85
2023/01/20 10:53:58;;;;;;;;;;;;;;;5.47;100.00;101639.25;5081514;28;846;-86
2023/01/20 10:56:30;;;;;;;;;;;;;;;5.56;100.00;101637.97;5081489;28;842;-84
2023/01/20 10:59:02;;;;;;;;;;;;;;;5.57;100.00;101637.03;5083989;28;919;-85
2023/01/20 11:01:28;;;;;;;;;;;;;;;5.53;100.00;101642.59;5081665;28;1260;-85
2023/01/20 11:03:54;;;;;;;;;;;;;;;5.61;100.00;101645.75;5082567;28;1898;-84
2023/01/20 11:06:25;;;;;;;;;;;;;;;5.46;100.00;101642.84;5079449;28;800;-84
2023/01/20 11:08:52;;;;;;;;;;;;;;;5.31;100.00;101640.91;5080026;28;802;-86
2023/01/20 11:11:23;;;;;;;;;;;;;;;5.35;100.00;101653.13;5081213;28;1307;-85
2023/01/20 11:13:51;;;;;;;;;;;;;;;5.43;100.00;101651.00;5082576;28;815;-86
2023/01/20 11:16:27;;;;;;;;;;;;;;;5.28;100.00;101646.34;5082070;28;764;-87
2023/01/20 11:18:56;;;;;;;;;;;;;;;5.41;100.00;101655.53;5081620;28;591;-86
2023/01/20 11:21:24;;;;;;;;;;;;;;;5.58;100.00;101665.38;5079378;28;1204;-83
2023/01/20 11:23:52;;;;;;;;;;;;;;;5.73;100.00;101658.47;5081216;28;1882;-82
2023/01/20 11:26:27;;;;;;;;;;;;;;;5.77;100.00;101660.03;5079436;28;886;-83
2023/01/20 11:28:53;;;;;;;;;;;;;;;5.80;100.00;101667.91;5079223;28;591;-83
2023/01/20 11:31:21;;;;;;;;;;;;;;;5.70;100.00;101671.91;5079177;28;1282;-83
2023/01/20 11:34:00;;;;;;;;;;;;;;;5.75;100.00;101669.91;5081629;28;903;-82
2023/01/20 11:36:27;;;;;;;;;;;;;;;5.84;100.00;101673.94;5079553;28;882;-83
2023/01/20 11:38:55;;;;;;;;;;;;;;;5.98;100.00;101680.34;5079067;28;731;-83
2023/01/20 11:41:23;;;;;;;;;;;;;;;6.10;100.00;101678.94;5076217;28;1259;-83
2023/01/20 11:43:54;;;;;;;;;;;;;;;6.03;100.00;101682.81;5078052;28;1897;-83
2023/01/20 11:46:26;;;;;;;;;;;;;;;6.06;100.00;101689.78;5078390;28;887;-83
2023/01/20 11:49:12;;;;;;;;;;;;;;;6.01;100.00;101677.56;5078210;28;552;-83
2023/01/20 11:51:55;;;;;;;;;;;;;;;5.97;100.00;101681.28;5077196;28;1208;-83
2023/01/20 11:54:29;;;;;;;;;;;;;;;5.83;100.00;101682.88;5082907;28;573;-83
2023/01/20 11:57:06;;;;;;;;;;;;;;;5.88;100.00;101681.69;5080755;28;842;-84
2023/01/20 11:59:34;;;;;;;;;;;;;;;5.81;100.00;101682.94;5080910;28;847;-83
2023/01/20 12:02:22;;;;;;;;;;;;;;;6.00;100.00;101693.63;5082059;28;1267;-84
2023/01/20 12:05:26;;;;;;;;;;;;;;;6.25;100.00;101693.28;5080070;28;1959;-84
2023/01/20 12:07:55;;;;;;;;;;;;;;;6.38;100.00;101689.06;5081359;28;823;-83
2023/01/20 12:10:29;;;;;;;;;;;;;;;6.36;100.00;101690.94;5080169;28;1181;-84
2023/01/20 12:13:10;;;;;;;;;;;;;;;6.27;100.00;101696.72;5079856;28;662;-83
2023/01/20 12:15:40;;;;;;;;;;;;;;;5.89;100.00;101698.53;5081440;28;608;-83
2023/01/20 12:18:17;;;;;;;;;;;;;;;5.90;100.00;101705.59;5082548;28;640;-82
2023/01/20 12:21:04;;;;;;;;;;;;;;;6.01;100.00;101704.19;5081267;28;1197;-83
2023/01/20 12:23:53;;;;;;;;;;;;;;;6.16;100.00;101701.72;5081027;28;1890;-83
2023/01/20 12:26:22;;;;;;;;;;;;;;;6.28;100.00;101707.31;5078520;28;567;-83
2023/01/20 12:29:10;;;;;;;;;;;;;;;6.40;100.00;101711.19;5078878;28;862;-83
2023/01/20 12:31:36;;;;;;;;;;;;;;;6.44;100.00;101714.56;5079081;28;1267;-83
2023/01/20 12:34:11;;;;;;;;;;;;;;;6.50;100.00;101722.25;5079965;28;927;-84
2023/01/20 12:36:46;;;;;;;;;;;;;;;6.30;100.00;101717.91;5079435;28;703;-83
2023/01/20 12:39:23;;;;;;;;;;;;;;;5.91;100.00;101716.22;5080146;28;891;-84
2023/01/20 12:42:03;;;;;;;;;;;;;;;5.78;100.00;101717.69;5077239;28;1327;-83
2023/01/20 12:44:57;;;;;;;;;;;;;;;5.67;100.00;101725.31;5078731;28;1902;-83
2023/01/20 12:47:34;;;;;;;;;;;;;;;5.69;100.00;101731.41;5078732;28;849;-84
2023/01/20 12:50:16;;;;;;;;;;;;;;;5.74;100.00;101738.25;5078538;28;1189;-84
2023/01/20 12:53:01;;;;;;;;;;;;;;;5.85;100.00;101743.09;5081213;28;884;-83
2023/01/20 12:55:56;;;;;;;;;;;;;;;5.95;100.00;101741.75;5079326;28;849;-84
2023/01/20 12:58:31;;;;;;;;;;;;;;;6.00;100.00;101742.41;5042846;28;1274;-83
2023/01/20 13:01:34;;;;;;;;;;;;;;;6.05;100.00;101739.53;5077950;28;1188;-83
2023/01/20 13:04:36;;;;;;;;;;;;;;;6.08;100.00;101751.81;5078971;28;1866;-83
2023/01/20 13:07:30;;;;;;;;;;;;;;;6.06;100.00;101753.69;5079569;28;575;-82
2023/01/20 13:10:19;;;;;;;;;;;;;;;6.04;100.00;101759.09;5078639;28;541;-83
2023/01/20 13:13:17;;;;;;;;;;;;;;;6.00;100.00;101754.88;5079814;28;682;-83
2023/01/20 13:15:57;;;;;;;;;;;;;;;6.16;100.00;101765.66;5074425;28;1151;-83
2023/01/20 13:19:02;;;;;;;;;;;;;;;6.31;100.00;101767.59;5079112;28;528;-83
2023/01/20 13:21:32;;;;;;;;;;;;;;;6.29;100.00;101772.09;5079380;28;1240;-83
2023/01/20 13:24:02;;;;;;;;;;;;;;;6.32;100.00;101778.19;5078098;28;1898;-83